sensor_id;sensor_type;location;lat;lon;timestamp;P1;durP1;ratioP1;P2;durP2;ratioP2
27071;SDS011;14613;46.308;25.288;2022-07-06T00:00:34;15.48;;;8.05;;
27071;SDS011;14613;46.308;25.288;2022-07-06T00:03:00;10.68;;;8.57;;
27071;SDS011;14613;46.308;25.288;2022-07-06T00:05:26;14.55;;;7.60;;
27071;SDS011;14613;46.308;25.288;2022-07-06T00:07:51;13.23;;;7.85;;
27071;SDS011;14613;46.308;25.288;2022-07-06T00:10:17;12.25;;;8.00;;
27071;SDS011;14613;46.308;25.288;2022-07-06T00:12:43;13.52;;;7.88;;
27071;SDS011;14613;46.308;25.288;2022-07-06T00:15:09;12.30;;;8.23;;
27071;SDS011;14613;46.308;25.288;2022-07-06T00:17:34;14.90;;;8.25;;
27071;SDS011;14613;46.308;25.288;2022-07-06T00:20:00;12.75;;;8.18;;
27071;SDS011;14613;46.308;25.288;2022-07-06T00:22:26;10.18;;;8.05;;
27071;SDS011;14613;46.308;25.288;2022-07-06T00:24:52;13.65;;;9.13;;
27071;SDS011;14613;46.308;25.288;2022-07-06T00:27:17;15.07;;;8.93;;
27071;SDS011;14613;46.308;25.288;2022-07-06T00:29:43;10.13;;;8.82;;
27071;SDS011;14613;46.308;25.288;2022-07-06T00:32:12;12.30;;;9.15;;
27071;SDS011;14613;46.308;25.288;2022-07-06T00:34:38;14.57;;;9.10;;
27071;SDS011;14613;46.308;25.288;2022-07-06T00:37:07;12.15;;;8.80;;
27071;SDS011;14613;46.308;25.288;2022-07-06T00:39:33;12.63;;;9.07;;
27071;SDS011;14613;46.308;25.288;2022-07-06T00:41:59;16.42;;;9.38;;
27071;SDS011;14613;46.308;25.288;2022-07-06T00:44:25;14.20;;;9.02;;
27071;SDS011;14613;46.308;25.288;2022-07-06T00:46:50;11.00;;;9.05;;
27071;SDS011;14613;46.308;25.288;2022-07-06T00:49:16;13.35;;;9.13;;
27071;SDS011;14613;46.308;25.288;2022-07-06T00:52:01;13.27;;;10.07;;
27071;SDS011;14613;46.308;25.288;2022-07-06T00:54:27;18.95;;;10.20;;
27071;SDS011;14613;46.308;25.288;2022-07-06T00:56:56;14.27;;;10.10;;
27071;SDS011;14613;46.308;25.288;2022-07-06T00:59:23;12.32;;;10.07;;
27071;SDS011;14613;46.308;25.288;2022-07-06T01:01:49;16.27;;;10.40;;
27071;SDS011;14613;46.308;25.288;2022-07-06T01:04:16;17.75;;;9.40;;
27071;SDS011;14613;46.308;25.288;2022-07-06T01:06:41;18.98;;;10.07;;
27071;SDS011;14613;46.308;25.288;2022-07-06T01:09:10;13.43;;;9.95;;
27071;SDS011;14613;46.308;25.288;2022-07-06T01:11:36;11.25;;;8.65;;
27071;SDS011;14613;46.308;25.288;2022-07-06T01:14:02;15.23;;;8.38;;
27071;SDS011;14613;46.308;25.288;2022-07-06T01:16:28;15.07;;;8.43;;
27071;SDS011;14613;46.308;25.288;2022-07-06T01:18:55;11.43;;;8.68;;
27071;SDS011;14613;46.308;25.288;2022-07-06T01:21:20;13.82;;;8.15;;
27071;SDS011;14613;46.308;25.288;2022-07-06T01:23:46;16.48;;;8.65;;
27071;SDS011;14613;46.308;25.288;2022-07-06T01:26:13;13.82;;;8.85;;
27071;SDS011;14613;46.308;25.288;2022-07-06T01:28:40;10.50;;;8.57;;
27071;SDS011;14613;46.308;25.288;2022-07-06T01:31:13;14.27;;;8.95;;
27071;SDS011;14613;46.308;25.288;2022-07-06T01:33:41;10.98;;;8.50;;
27071;SDS011;14613;46.308;25.288;2022-07-06T01:36:07;10.63;;;8.40;;
27071;SDS011;14613;46.308;25.288;2022-07-06T01:38:42;14.02;;;9.23;;
27071;SDS011;14613;46.308;25.288;2022-07-06T01:41:18;14.40;;;10.50;;
27071;SDS011;14613;46.308;25.288;2022-07-06T01:43:45;16.13;;;10.68;;
27071;SDS011;14613;46.308;25.288;2022-07-06T01:46:11;13.68;;;10.05;;
27071;SDS011;14613;46.308;25.288;2022-07-06T01:48:38;13.52;;;9.35;;
27071;SDS011;14613;46.308;25.288;2022-07-06T01:51:04;11.73;;;8.70;;
27071;SDS011;14613;46.308;25.288;2022-07-06T01:53:30;9.82;;;7.85;;
27071;SDS011;14613;46.308;25.288;2022-07-06T01:55:56;12.18;;;8.60;;
27071;SDS011;14613;46.308;25.288;2022-07-06T01:58:22;6.63;;;5.95;;
27071;SDS011;14613;46.308;25.288;2022-07-06T02:00:48;6.10;;;5.32;;
27071;SDS011;14613;46.308;25.288;2022-07-06T02:03:14;6.40;;;5.55;;
27071;SDS011;14613;46.308;25.288;2022-07-06T02:05:40;5.10;;;4.60;;
27071;SDS011;14613;46.308;25.288;2022-07-06T02:08:05;4.53;;;4.07;;
27071;SDS011;14613;46.308;25.288;2022-07-06T02:10:31;4.45;;;3.80;;
27071;SDS011;14613;46.308;25.288;2022-07-06T02:12:57;4.97;;;4.28;;
27071;SDS011;14613;46.308;25.288;2022-07-06T02:15:23;4.07;;;3.65;;
27071;SDS011;14613;46.308;25.288;2022-07-06T02:17:49;6.45;;;3.75;;
27071;SDS011;14613;46.308;25.288;2022-07-06T02:20:14;4.68;;;3.75;;
27071;SDS011;14613;46.308;25.288;2022-07-06T02:22:40;7.10;;;3.80;;
27071;SDS011;14613;46.308;25.288;2022-07-06T02:25:06;3.90;;;3.15;;
27071;SDS011;14613;46.308;25.288;2022-07-06T02:27:32;6.20;;;3.40;;
27071;SDS011;14613;46.308;25.288;2022-07-06T02:29:58;5.60;;;3.60;;
27071;SDS011;14613;46.308;25.288;2022-07-06T02:32:24;13.57;;;6.28;;
27071;SDS011;14613;46.308;25.288;2022-07-06T02:34:50;14.18;;;7.18;;
27071;SDS011;14613;46.308;25.288;2022-07-06T02:37:15;10.63;;;7.25;;
27071;SDS011;14613;46.308;25.288;2022-07-06T02:39:41;15.95;;;7.57;;
27071;SDS011;14613;46.308;25.288;2022-07-06T02:42:07;17.23;;;7.38;;
27071;SDS011;14613;46.308;25.288;2022-07-06T02:44:33;14.48;;;8.23;;
27071;SDS011;14613;46.308;25.288;2022-07-06T02:46:58;16.52;;;7.32;;
27071;SDS011;14613;46.308;25.288;2022-07-06T02:49:24;14.10;;;7.40;;
27071;SDS011;14613;46.308;25.288;2022-07-06T02:51:50;11.68;;;6.97;;
27071;SDS011;14613;46.308;25.288;2022-07-06T02:54:16;10.10;;;7.78;;
27071;SDS011;14613;46.308;25.288;2022-07-06T02:56:41;10.20;;;7.32;;
27071;SDS011;14613;46.308;25.288;2022-07-06T02:59:07;10.40;;;6.55;;
27071;SDS011;14613;46.308;25.288;2022-07-06T03:01:33;16.25;;;6.55;;
27071;SDS011;14613;46.308;25.288;2022-07-06T03:03:59;13.52;;;7.38;;
27071;SDS011;14613;46.308;25.288;2022-07-06T03:06:25;18.67;;;8.63;;
27071;SDS011;14613;46.308;25.288;2022-07-06T03:08:51;9.18;;;7.50;;
27071;SDS011;14613;46.308;25.288;2022-07-06T03:11:16;11.70;;;6.95;;
27071;SDS011;14613;46.308;25.288;2022-07-06T03:13:42;14.40;;;7.05;;
27071;SDS011;14613;46.308;25.288;2022-07-06T03:16:08;11.27;;;7.40;;
27071;SDS011;14613;46.308;25.288;2022-07-06T03:18:34;15.65;;;7.22;;
27071;SDS011;14613;46.308;25.288;2022-07-06T03:21:00;13.13;;;6.90;;
27071;SDS011;14613;46.308;25.288;2022-07-06T03:23:29;14.73;;;7.13;;
27071;SDS011;14613;46.308;25.288;2022-07-06T03:25:55;18.27;;;7.40;;
27071;SDS011;14613;46.308;25.288;2022-07-06T03:28:21;16.52;;;7.07;;
27071;SDS011;14613;46.308;25.288;2022-07-06T03:30:46;14.55;;;7.97;;
27071;SDS011;14613;46.308;25.288;2022-07-06T03:33:12;17.48;;;7.45;;
27071;SDS011;14613;46.308;25.288;2022-07-06T03:35:38;14.07;;;7.35;;
27071;SDS011;14613;46.308;25.288;2022-07-06T03:38:04;12.68;;;8.70;;
27071;SDS011;14613;46.308;25.288;2022-07-06T03:40:30;12.02;;;7.90;;
27071;SDS011;14613;46.308;25.288;2022-07-06T03:42:55;20.20;;;9.00;;
27071;SDS011;14613;46.308;25.288;2022-07-06T03:45:21;25.85;;;9.38;;
27071;SDS011;14613;46.308;25.288;2022-07-06T03:47:47;17.02;;;9.18;;
27071;SDS011;14613;46.308;25.288;2022-07-06T03:50:13;17.27;;;9.73;;
27071;SDS011;14613;46.308;25.288;2022-07-06T03:52:38;14.45;;;9.45;;
27071;SDS011;14613;46.308;25.288;2022-07-06T03:55:13;15.23;;;8.77;;
27071;SDS011;14613;46.308;25.288;2022-07-06T03:57:39;13.73;;;9.30;;
27071;SDS011;14613;46.308;25.288;2022-07-06T04:00:05;15.77;;;9.13;;
27071;SDS011;14613;46.308;25.288;2022-07-06T04:02:33;21.38;;;9.00;;
27071;SDS011;14613;46.308;25.288;2022-07-06T04:04:59;13.25;;;8.00;;
27071;SDS011;14613;46.308;25.288;2022-07-06T04:07:25;14.95;;;7.53;;
27071;SDS011;14613;46.308;25.288;2022-07-06T04:09:51;20.70;;;8.57;;
27071;SDS011;14613;46.308;25.288;2022-07-06T04:12:17;19.00;;;7.78;;
27071;SDS011;14613;46.308;25.288;2022-07-06T04:14:43;12.93;;;7.55;;
27071;SDS011;14613;46.308;25.288;2022-07-06T04:17:09;11.73;;;5.43;;
27071;SDS011;14613;46.308;25.288;2022-07-06T04:19:53;11.48;;;5.90;;
27071;SDS011;14613;46.308;25.288;2022-07-06T04:22:19;10.40;;;4.75;;
27071;SDS011;14613;46.308;25.288;2022-07-06T04:24:45;9.88;;;4.60;;
27071;SDS011;14613;46.308;25.288;2022-07-06T04:27:10;12.00;;;5.13;;
27071;SDS011;14613;46.308;25.288;2022-07-06T04:29:36;5.80;;;4.45;;
27071;SDS011;14613;46.308;25.288;2022-07-06T04:32:02;11.07;;;4.00;;
27071;SDS011;14613;46.308;25.288;2022-07-06T04:34:28;6.30;;;3.05;;
27071;SDS011;14613;46.308;25.288;2022-07-06T04:36:54;6.90;;;3.28;;
27071;SDS011;14613;46.308;25.288;2022-07-06T04:39:20;7.35;;;2.90;;
27071;SDS011;14613;46.308;25.288;2022-07-06T04:41:46;4.00;;;3.05;;
27071;SDS011;14613;46.308;25.288;2022-07-06T04:44:12;8.68;;;4.57;;
27071;SDS011;14613;46.308;25.288;2022-07-06T04:46:37;8.27;;;4.40;;
27071;SDS011;14613;46.308;25.288;2022-07-06T04:49:03;8.02;;;4.32;;
27071;SDS011;14613;46.308;25.288;2022-07-06T04:51:29;7.32;;;3.83;;
27071;SDS011;14613;46.308;25.288;2022-07-06T04:53:54;10.45;;;3.63;;
27071;SDS011;14613;46.308;25.288;2022-07-06T04:56:20;5.45;;;3.03;;
27071;SDS011;14613;46.308;25.288;2022-07-06T04:58:46;3.22;;;2.83;;
27071;SDS011;14613;46.308;25.288;2022-07-06T05:01:11;3.53;;;2.53;;
27071;SDS011;14613;46.308;25.288;2022-07-06T05:03:37;3.78;;;2.55;;
27071;SDS011;14613;46.308;25.288;2022-07-06T05:06:06;2.67;;;2.47;;
27071;SDS011;14613;46.308;25.288;2022-07-06T05:08:32;3.00;;;2.65;;
27071;SDS011;14613;46.308;25.288;2022-07-06T05:10:58;2.97;;;2.72;;
27071;SDS011;14613;46.308;25.288;2022-07-06T05:13:25;9.10;;;4.03;;
27071;SDS011;14613;46.308;25.288;2022-07-06T05:15:50;5.07;;;3.38;;
27071;SDS011;14613;46.308;25.288;2022-07-06T05:18:16;6.25;;;4.00;;
27071;SDS011;14613;46.308;25.288;2022-07-06T05:20:42;4.60;;;3.45;;
27071;SDS011;14613;46.308;25.288;2022-07-06T05:23:09;5.28;;;2.70;;
27071;SDS011;14613;46.308;25.288;2022-07-06T05:25:35;5.85;;;2.58;;
27071;SDS011;14613;46.308;25.288;2022-07-06T05:28:02;2.60;;;2.40;;
27071;SDS011;14613;46.308;25.288;2022-07-06T05:30:28;2.70;;;2.40;;
27071;SDS011;14613;46.308;25.288;2022-07-06T05:32:54;5.22;;;2.50;;
27071;SDS011;14613;46.308;25.288;2022-07-06T05:35:20;7.03;;;2.60;;
27071;SDS011;14613;46.308;25.288;2022-07-06T05:37:45;2.42;;;2.22;;
27071;SDS011;14613;46.308;25.288;2022-07-06T05:40:11;6.50;;;2.30;;
27071;SDS011;14613;46.308;25.288;2022-07-06T05:42:37;3.15;;;2.85;;
27071;SDS011;14613;46.308;25.288;2022-07-06T05:45:03;9.05;;;5.10;;
27071;SDS011;14613;46.308;25.288;2022-07-06T05:47:29;2.80;;;2.60;;
27071;SDS011;14613;46.308;25.288;2022-07-06T05:50:14;4.75;;;3.13;;
27071;SDS011;14613;46.308;25.288;2022-07-06T05:52:40;4.15;;;3.45;;
27071;SDS011;14613;46.308;25.288;2022-07-06T05:55:11;5.20;;;2.90;;
27071;SDS011;14613;46.308;25.288;2022-07-06T05:57:40;3.90;;;3.10;;
27071;SDS011;14613;46.308;25.288;2022-07-06T06:00:06;4.15;;;2.78;;
27071;SDS011;14613;46.308;25.288;2022-07-06T06:02:36;7.45;;;3.50;;
27071;SDS011;14613;46.308;25.288;2022-07-06T06:05:03;4.68;;;3.15;;
27071;SDS011;14613;46.308;25.288;2022-07-06T06:07:30;4.28;;;2.83;;
27071;SDS011;14613;46.308;25.288;2022-07-06T06:09:57;7.88;;;3.72;;
27071;SDS011;14613;46.308;25.288;2022-07-06T06:12:23;3.88;;;2.85;;
27071;SDS011;14613;46.308;25.288;2022-07-06T06:14:49;3.63;;;2.95;;
27071;SDS011;14613;46.308;25.288;2022-07-06T06:17:14;5.72;;;3.28;;
27071;SDS011;14613;46.308;25.288;2022-07-06T06:19:40;2.95;;;2.75;;
27071;SDS011;14613;46.308;25.288;2022-07-06T06:22:06;3.78;;;3.47;;
27071;SDS011;14613;46.308;25.288;2022-07-06T06:24:32;5.97;;;2.67;;
27071;SDS011;14613;46.308;25.288;2022-07-06T06:26:57;6.63;;;2.58;;
27071;SDS011;14613;46.308;25.288;2022-07-06T06:29:24;2.53;;;2.33;;
27071;SDS011;14613;46.308;25.288;2022-07-06T06:31:50;3.58;;;2.38;;
27071;SDS011;14613;46.308;25.288;2022-07-06T06:34:16;2.58;;;2.33;;
27071;SDS011;14613;46.308;25.288;2022-07-06T06:36:42;3.05;;;2.50;;
27071;SDS011;14613;46.308;25.288;2022-07-06T06:39:07;11.15;;;4.45;;
27071;SDS011;14613;46.308;25.288;2022-07-06T06:41:33;7.50;;;4.28;;
27071;SDS011;14613;46.308;25.288;2022-07-06T06:43:59;5.07;;;3.80;;
27071;SDS011;14613;46.308;25.288;2022-07-06T06:46:25;5.40;;;2.67;;
27071;SDS011;14613;46.308;25.288;2022-07-06T06:48:50;2.67;;;2.15;;
27071;SDS011;14613;46.308;25.288;2022-07-06T06:51:16;2.05;;;1.85;;
27071;SDS011;14613;46.308;25.288;2022-07-06T06:53:42;2.25;;;2.15;;
27071;SDS011;14613;46.308;25.288;2022-07-06T06:56:08;3.03;;;2.50;;
27071;SDS011;14613;46.308;25.288;2022-07-06T06:58:34;2.45;;;2.25;;
27071;SDS011;14613;46.308;25.288;2022-07-06T07:00:59;2.80;;;2.60;;
27071;SDS011;14613;46.308;25.288;2022-07-06T07:03:25;2.40;;;2.20;;
27071;SDS011;14613;46.308;25.288;2022-07-06T07:05:51;4.57;;;2.35;;
27071;SDS011;14613;46.308;25.288;2022-07-06T07:08:17;2.30;;;2.10;;
27071;SDS011;14613;46.308;25.288;2022-07-06T07:10:42;12.10;;;6.45;;
27071;SDS011;14613;46.308;25.288;2022-07-06T07:13:08;6.80;;;4.80;;
27071;SDS011;14613;46.308;25.288;2022-07-06T07:15:34;4.95;;;4.07;;
27071;SDS011;14613;46.308;25.288;2022-07-06T07:18:00;5.40;;;3.58;;
27071;SDS011;14613;46.308;25.288;2022-07-06T07:20:26;7.93;;;4.28;;
27071;SDS011;14613;46.308;25.288;2022-07-06T07:22:54;4.90;;;3.13;;
27071;SDS011;14613;46.308;25.288;2022-07-06T07:25:20;4.60;;;2.83;;
27071;SDS011;14613;46.308;25.288;2022-07-06T07:27:46;5.18;;;2.28;;
27071;SDS011;14613;46.308;25.288;2022-07-06T07:30:12;3.50;;;2.65;;
27071;SDS011;14613;46.308;25.288;2022-07-06T07:32:38;6.28;;;3.13;;
27071;SDS011;14613;46.308;25.288;2022-07-06T07:35:07;3.33;;;2.88;;
27071;SDS011;14613;46.308;25.288;2022-07-06T07:37:33;9.13;;;3.08;;
27071;SDS011;14613;46.308;25.288;2022-07-06T07:39:59;7.35;;;2.70;;
27071;SDS011;14613;46.308;25.288;2022-07-06T07:42:25;3.53;;;2.50;;
27071;SDS011;14613;46.308;25.288;2022-07-06T07:44:51;4.75;;;2.67;;
27071;SDS011;14613;46.308;25.288;2022-07-06T07:47:17;5.45;;;2.70;;
27071;SDS011;14613;46.308;25.288;2022-07-06T07:49:43;3.92;;;3.13;;
27071;SDS011;14613;46.308;25.288;2022-07-06T07:52:09;3.38;;;3.05;;
27071;SDS011;14613;46.308;25.288;2022-07-06T07:54:35;3.05;;;2.67;;
27071;SDS011;14613;46.308;25.288;2022-07-06T07:57:01;4.10;;;3.15;;
27071;SDS011;14613;46.308;25.288;2022-07-06T07:59:27;9.82;;;3.40;;
27071;SDS011;14613;46.308;25.288;2022-07-06T08:01:53;2.97;;;2.65;;
27071;SDS011;14613;46.308;25.288;2022-07-06T08:04:19;4.63;;;3.00;;
27071;SDS011;14613;46.308;25.288;2022-07-06T08:06:45;9.40;;;3.50;;
27071;SDS011;14613;46.308;25.288;2022-07-06T08:09:11;3.90;;;3.47;;
27071;SDS011;14613;46.308;25.288;2022-07-06T08:11:37;4.28;;;3.38;;
27071;SDS011;14613;46.308;25.288;2022-07-06T08:14:03;5.13;;;3.22;;
27071;SDS011;14613;46.308;25.288;2022-07-06T08:16:29;4.40;;;3.45;;
27071;SDS011;14613;46.308;25.288;2022-07-06T08:18:55;3.20;;;2.90;;
27071;SDS011;14613;46.308;25.288;2022-07-06T08:21:21;5.53;;;3.22;;
27071;SDS011;14613;46.308;25.288;2022-07-06T08:23:47;3.75;;;3.38;;
27071;SDS011;14613;46.308;25.288;2022-07-06T08:26:13;4.75;;;3.28;;
27071;SDS011;14613;46.308;25.288;2022-07-06T08:28:39;4.70;;;2.97;;
27071;SDS011;14613;46.308;25.288;2022-07-06T08:31:05;4.22;;;3.08;;
27071;SDS011;14613;46.308;25.288;2022-07-06T08:33:31;5.43;;;2.85;;
27071;SDS011;14613;46.308;25.288;2022-07-06T08:36:01;4.30;;;3.78;;
27071;SDS011;14613;46.308;25.288;2022-07-06T08:38:28;5.57;;;3.58;;
27071;SDS011;14613;46.308;25.288;2022-07-06T08:40:54;6.03;;;3.60;;
27071;SDS011;14613;46.308;25.288;2022-07-06T08:43:22;5.70;;;4.63;;
27071;SDS011;14613;46.308;25.288;2022-07-06T08:45:49;4.50;;;3.22;;
27071;SDS011;14613;46.308;25.288;2022-07-06T08:48:18;8.45;;;2.90;;
27071;SDS011;14613;46.308;25.288;2022-07-06T08:50:47;4.32;;;2.70;;
27071;SDS011;14613;46.308;25.288;2022-07-06T08:53:15;3.35;;;2.95;;
27071;SDS011;14613;46.308;25.288;2022-07-06T08:55:43;4.47;;;2.50;;
27071;SDS011;14613;46.308;25.288;2022-07-06T08:58:10;2.88;;;2.42;;
27071;SDS011;14613;46.308;25.288;2022-07-06T09:00:37;19.50;;;3.55;;
27071;SDS011;14613;46.308;25.288;2022-07-06T09:03:04;2.75;;;2.55;;
27071;SDS011;14613;46.308;25.288;2022-07-06T09:05:31;3.53;;;2.75;;
27071;SDS011;14613;46.308;25.288;2022-07-06T09:08:00;4.95;;;2.80;;
27071;SDS011;14613;46.308;25.288;2022-07-06T09:10:28;4.07;;;3.28;;
27071;SDS011;14613;46.308;25.288;2022-07-06T09:13:01;7.45;;;2.92;;
27071;SDS011;14613;46.308;25.288;2022-07-06T09:15:31;4.68;;;3.25;;
27071;SDS011;14613;46.308;25.288;2022-07-06T09:17:59;5.82;;;3.28;;
27071;SDS011;14613;46.308;25.288;2022-07-06T09:20:26;7.82;;;3.50;;
27071;SDS011;14613;46.308;25.288;2022-07-06T09:22:59;5.38;;;2.90;;
27071;SDS011;14613;46.308;25.288;2022-07-06T09:25:28;4.15;;;2.50;;
27071;SDS011;14613;46.308;25.288;2022-07-06T09:27:55;5.68;;;2.17;;
27071;SDS011;14613;46.308;25.288;2022-07-06T09:30:23;4.68;;;3.13;;
27071;SDS011;14613;46.308;25.288;2022-07-06T09:32:51;2.80;;;2.42;;
27071;SDS011;14613;46.308;25.288;2022-07-06T09:35:28;2.80;;;2.28;;
27071;SDS011;14613;46.308;25.288;2022-07-06T09:38:03;2.33;;;2.20;;
27071;SDS011;14613;46.308;25.288;2022-07-06T09:40:35;2.45;;;2.25;;
27071;SDS011;14613;46.308;25.288;2022-07-06T09:43:18;2.60;;;2.40;;
27071;SDS011;14613;46.308;25.288;2022-07-06T09:45:46;5.93;;;2.67;;
27071;SDS011;14613;46.308;25.288;2022-07-06T09:48:18;3.95;;;2.25;;
27071;SDS011;14613;46.308;25.288;2022-07-06T09:53:19;3.20;;;2.30;;
27071;SDS011;14613;46.308;25.288;2022-07-06T09:55:47;3.03;;;2.40;;
27071;SDS011;14613;46.308;25.288;2022-07-06T09:58:15;3.60;;;2.40;;
27071;SDS011;14613;46.308;25.288;2022-07-06T10:00:42;3.58;;;2.13;;
27071;SDS011;14613;46.308;25.288;2022-07-06T10:03:09;4.10;;;2.15;;
27071;SDS011;14613;46.308;25.288;2022-07-06T10:05:37;6.18;;;2.67;;
27071;SDS011;14613;46.308;25.288;2022-07-06T10:08:05;4.25;;;2.60;;
27071;SDS011;14613;46.308;25.288;2022-07-06T10:10:34;3.35;;;2.90;;
27071;SDS011;14613;46.308;25.288;2022-07-06T10:13:02;3.55;;;2.47;;
27071;SDS011;14613;46.308;25.288;2022-07-06T10:15:31;2.40;;;2.20;;
27071;SDS011;14613;46.308;25.288;2022-07-06T10:17:59;3.80;;;2.28;;
27071;SDS011;14613;46.308;25.288;2022-07-06T10:20:30;4.80;;;2.63;;
27071;SDS011;14613;46.308;25.288;2022-07-06T10:23:01;2.40;;;2.20;;
27071;SDS011;14613;46.308;25.288;2022-07-06T10:25:28;2.20;;;2.10;;
27071;SDS011;14613;46.308;25.288;2022-07-06T10:27:57;7.05;;;2.70;;
27071;SDS011;14613;46.308;25.288;2022-07-06T10:30:24;3.10;;;2.40;;
27071;SDS011;14613;46.308;25.288;2022-07-06T10:32:52;3.38;;;2.50;;
27071;SDS011;14613;46.308;25.288;2022-07-06T10:35:21;3.00;;;2.40;;
27071;SDS011;14613;46.308;25.288;2022-07-06T10:38:06;5.15;;;2.42;;
27071;SDS011;14613;46.308;25.288;2022-07-06T10:40:37;2.35;;;2.15;;
27071;SDS011;14613;46.308;25.288;2022-07-06T10:43:30;3.03;;;2.40;;
27071;SDS011;14613;46.308;25.288;2022-07-06T10:46:08;2.33;;;2.13;;
27071;SDS011;14613;46.308;25.288;2022-07-06T10:48:40;5.40;;;2.28;;
27071;SDS011;14613;46.308;25.288;2022-07-06T10:51:07;6.78;;;3.42;;
27071;SDS011;14613;46.308;25.288;2022-07-06T10:53:36;3.88;;;2.65;;
27071;SDS011;14613;46.308;25.288;2022-07-06T10:56:08;3.17;;;2.60;;
27071;SDS011;14613;46.308;25.288;2022-07-06T11:01:11;2.25;;;2.15;;
27071;SDS011;14613;46.308;25.288;2022-07-06T11:03:39;3.03;;;2.78;;
27071;SDS011;14613;46.308;25.288;2022-07-06T11:08:41;3.28;;;2.17;;
27071;SDS011;14613;46.308;25.288;2022-07-06T11:11:37;2.72;;;2.22;;
27071;SDS011;14613;46.308;25.288;2022-07-06T11:14:01;2.78;;;2.53;;
27071;SDS011;14613;46.308;25.288;2022-07-06T11:19:16;4.20;;;2.42;;
27071;SDS011;14613;46.308;25.288;2022-07-06T11:21:47;3.08;;;2.78;;
27071;SDS011;14613;46.308;25.288;2022-07-06T11:24:23;2.65;;;2.42;;
27071;SDS011;14613;46.308;25.288;2022-07-06T11:26:51;4.38;;;2.75;;
27071;SDS011;14613;46.308;25.288;2022-07-06T11:29:18;6.50;;;2.75;;
27071;SDS011;14613;46.308;25.288;2022-07-06T11:31:47;5.90;;;4.13;;
27071;SDS011;14613;46.308;25.288;2022-07-06T11:34:18;6.97;;;3.15;;
27071;SDS011;14613;46.308;25.288;2022-07-06T11:36:45;6.25;;;3.88;;
27071;SDS011;14613;46.308;25.288;2022-07-06T11:39:11;4.90;;;3.00;;
27071;SDS011;14613;46.308;25.288;2022-07-06T11:41:37;3.33;;;2.63;;
27071;SDS011;14613;46.308;25.288;2022-07-06T11:44:03;4.18;;;2.90;;
27071;SDS011;14613;46.308;25.288;2022-07-06T11:46:30;3.17;;;2.80;;
27071;SDS011;14613;46.308;25.288;2022-07-06T11:49:03;4.45;;;3.42;;
27071;SDS011;14613;46.308;25.288;2022-07-06T11:51:32;3.22;;;2.25;;
27071;SDS011;14613;46.308;25.288;2022-07-06T11:54:00;3.83;;;3.08;;
27071;SDS011;14613;46.308;25.288;2022-07-06T11:56:32;6.45;;;4.00;;
27071;SDS011;14613;46.308;25.288;2022-07-06T11:58:58;5.28;;;3.22;;
27071;SDS011;14613;46.308;25.288;2022-07-06T12:01:25;18.20;;;2.92;;
27071;SDS011;14613;46.308;25.288;2022-07-06T12:03:52;4.03;;;2.58;;
27071;SDS011;14613;46.308;25.288;2022-07-06T12:06:23;5.28;;;2.92;;
27071;SDS011;14613;46.308;25.288;2022-07-06T12:08:51;27.13;;;15.27;;
27071;SDS011;14613;46.308;25.288;2022-07-06T12:11:43;13.82;;;9.27;;
27071;SDS011;14613;46.308;25.288;2022-07-06T12:14:13;7.97;;;4.55;;
27071;SDS011;14613;46.308;25.288;2022-07-06T12:16:39;6.93;;;4.55;;
27071;SDS011;14613;46.308;25.288;2022-07-06T12:19:05;10.40;;;6.43;;
27071;SDS011;14613;46.308;25.288;2022-07-06T12:21:36;10.80;;;6.10;;
27071;SDS011;14613;46.308;25.288;2022-07-06T12:24:17;8.80;;;3.83;;
27071;SDS011;14613;46.308;25.288;2022-07-06T12:26:47;13.45;;;7.28;;
27071;SDS011;14613;46.308;25.288;2022-07-06T12:29:13;10.60;;;6.57;;
27071;SDS011;14613;46.308;25.288;2022-07-06T12:31:44;4.35;;;3.13;;
27071;SDS011;14613;46.308;25.288;2022-07-06T12:34:21;6.75;;;4.20;;
27071;SDS011;14613;46.308;25.288;2022-07-06T12:37:05;2.97;;;2.70;;
27071;SDS011;14613;46.308;25.288;2022-07-06T12:39:39;6.57;;;4.15;;
27071;SDS011;14613;46.308;25.288;2022-07-06T12:42:15;6.35;;;5.47;;
27071;SDS011;14613;46.308;25.288;2022-07-06T12:44:43;10.38;;;4.60;;
27071;SDS011;14613;46.308;25.288;2022-07-06T12:47:10;6.43;;;3.50;;
27071;SDS011;14613;46.308;25.288;2022-07-06T12:49:37;3.15;;;2.15;;
27071;SDS011;14613;46.308;25.288;2022-07-06T12:54:40;5.07;;;2.63;;
27071;SDS011;14613;46.308;25.288;2022-07-06T12:57:22;6.15;;;2.10;;
27071;SDS011;14613;46.308;25.288;2022-07-06T13:04:55;3.70;;;2.05;;
27071;SDS011;14613;46.308;25.288;2022-07-06T13:07:25;2.70;;;2.50;;
27071;SDS011;14613;46.308;25.288;2022-07-06T13:09:52;3.15;;;2.05;;
27071;SDS011;14613;46.308;25.288;2022-07-06T13:12:19;4.72;;;2.30;;
27071;SDS011;14613;46.308;25.288;2022-07-06T13:14:45;2.63;;;2.20;;
27071;SDS011;14613;46.308;25.288;2022-07-06T13:17:11;2.35;;;2.15;;
27071;SDS011;14613;46.308;25.288;2022-07-06T13:19:37;3.00;;;2.58;;
27071;SDS011;14613;46.308;25.288;2022-07-06T13:22:03;4.07;;;2.25;;
27071;SDS011;14613;46.308;25.288;2022-07-06T13:24:29;2.85;;;2.40;;
27071;SDS011;14613;46.308;25.288;2022-07-06T13:26:55;2.58;;;2.38;;
27071;SDS011;14613;46.308;25.288;2022-07-06T13:29:22;4.40;;;3.30;;
27071;SDS011;14613;46.308;25.288;2022-07-06T13:31:48;7.30;;;2.60;;
27071;SDS011;14613;46.308;25.288;2022-07-06T13:34:14;4.47;;;3.25;;
27071;SDS011;14613;46.308;25.288;2022-07-06T13:36:40;5.22;;;2.40;;
27071;SDS011;14613;46.308;25.288;2022-07-06T13:39:06;2.83;;;2.35;;
27071;SDS011;14613;46.308;25.288;2022-07-06T13:41:33;4.32;;;2.70;;
27071;SDS011;14613;46.308;25.288;2022-07-06T13:43:59;2.78;;;2.40;;
27071;SDS011;14613;46.308;25.288;2022-07-06T13:46:28;5.18;;;3.33;;
27071;SDS011;14613;46.308;25.288;2022-07-06T13:48:55;9.80;;;4.45;;
27071;SDS011;14613;46.308;25.288;2022-07-06T13:51:22;3.15;;;2.63;;
27071;SDS011;14613;46.308;25.288;2022-07-06T13:53:49;5.32;;;2.97;;
27071;SDS011;14613;46.308;25.288;2022-07-06T13:56:15;2.60;;;2.40;;
27071;SDS011;14613;46.308;25.288;2022-07-06T13:58:42;3.25;;;2.10;;
27071;SDS011;14613;46.308;25.288;2022-07-06T14:01:08;2.47;;;2.28;;
27071;SDS011;14613;46.308;25.288;2022-07-06T14:03:34;2.50;;;2.30;;
27071;SDS011;14613;46.308;25.288;2022-07-06T14:06:02;2.65;;;2.45;;
27071;SDS011;14613;46.308;25.288;2022-07-06T14:08:28;2.90;;;2.50;;
27071;SDS011;14613;46.308;25.288;2022-07-06T14:10:54;4.90;;;3.03;;
27071;SDS011;14613;46.308;25.288;2022-07-06T14:13:21;5.18;;;3.70;;
27071;SDS011;14613;46.308;25.288;2022-07-06T14:15:47;3.17;;;2.35;;
27071;SDS011;14613;46.308;25.288;2022-07-06T14:18:14;8.30;;;2.05;;
27071;SDS011;14613;46.308;25.288;2022-07-06T14:20:42;4.82;;;2.15;;
27071;SDS011;14613;46.308;25.288;2022-07-06T14:23:09;5.25;;;2.13;;
27071;SDS011;14613;46.308;25.288;2022-07-06T14:25:36;17.35;;;2.10;;
27071;SDS011;14613;46.308;25.288;2022-07-06T14:28:03;2.78;;;1.75;;
27071;SDS011;14613;46.308;25.288;2022-07-06T14:30:29;5.85;;;2.25;;
27071;SDS011;14613;46.308;25.288;2022-07-06T14:32:55;2.05;;;1.95;;
27071;SDS011;14613;46.308;25.288;2022-07-06T14:35:21;1.70;;;1.60;;
27071;SDS011;14613;46.308;25.288;2022-07-06T14:37:48;6.00;;;2.20;;
27071;SDS011;14613;46.308;25.288;2022-07-06T14:40:14;3.67;;;1.95;;
27071;SDS011;14613;46.308;25.288;2022-07-06T14:42:39;1.70;;;1.60;;
27071;SDS011;14613;46.308;25.288;2022-07-06T14:45:05;5.25;;;1.65;;
27071;SDS011;14613;46.308;25.288;2022-07-06T14:47:31;1.60;;;1.50;;
27071;SDS011;14613;46.308;25.288;2022-07-06T14:49:57;1.70;;;1.30;;